Time;durP1;ratioP1;P1;durP2;ratioP2;P2;SDS_P1;SDS_P2;PMS_P1;PMS_P2;Temp;Humidity;BMP_temperature;BMP_pressure;BME280_temperature;BME280_humidity;BME280_pressure;Samples;Min_cycle;Max_cycle;Signal;HPM_P1;HPM_P2
2022/04/04 00:01:34;;;;;;;71.63;9.80;;;13.10;99.90;;;;;;5034541;28;20218;-73
2022/04/04 00:04:00;;;;;;;86.53;9.83;;;13.10;99.90;;;;;;5047769;28;20643;-72
2022/04/04 00:06:29;;;;;;;71.87;9.53;;;13.10;99.90;;;;;;5035166;28;20909;-73
2022/04/04 00:08:56;;;;;;;94.13;10.57;;;13.10;99.90;;;;;;5044379;28;20192;-72
2022/04/04 00:11:22;;;;;;;67.00;10.00;;;13.00;99.90;;;;;;5042475;28;20698;-73
2022/04/04 00:13:48;;;;;;;80.73;11.23;;;13.10;99.90;;;;;;5043073;28;20282;-72
2022/04/04 00:16:15;;;;;;;80.33;10.13;;;13.00;99.90;;;;;;5038114;28;20275;-73
2022/04/04 00:18:41;;;;;;;68.50;9.77;;;13.00;99.90;;;;;;5038479;28;20207;-73
2022/04/04 00:21:07;;;;;;;81.47;10.73;;;13.10;99.90;;;;;;5048558;28;20264;-73
2022/04/04 00:23:33;;;;;;;80.93;10.37;;;13.00;99.90;;;;;;5039774;28;20206;-73
2022/04/04 00:26:05;;;;;;;82.57;9.90;;;13.10;99.90;;;;;;5042024;28;20188;-73
2022/04/04 00:28:31;;;;;;;78.87;10.67;;;13.10;99.90;;;;;;5045834;28;20179;-73
2022/04/04 00:30:57;;;;;;;83.70;10.37;;;13.10;99.90;;;;;;5026698;28;20192;-73
2022/04/04 00:33:24;;;;;;;80.53;10.87;;;13.10;99.90;;;;;;5041681;28;20195;-73
2022/04/04 00:35:50;;;;;;;69.03;8.87;;;13.10;99.90;;;;;;5042345;28;20292;-72
2022/04/04 00:38:18;;;;;;;87.57;10.23;;;13.10;99.90;;;;;;5048071;28;20192;-73
2022/04/04 00:40:44;;;;;;;109.20;11.37;;;13.00;99.90;;;;;;5047351;28;20257;-73
2022/04/04 00:43:11;;;;;;;81.03;10.47;;;13.00;99.90;;;;;;5043971;28;20774;-73
2022/04/04 00:45:37;;;;;;;60.70;8.60;;;13.00;99.90;;;;;;5039861;28;20219;-73
2022/04/04 00:48:04;;;;;;;69.37;10.97;;;13.00;99.90;;;;;;5036730;28;20184;-73
2022/04/04 00:50:30;;;;;;;78.47;10.33;;;13.00;99.90;;;;;;5038605;28;20306;-73
2022/04/04 00:52:57;;;;;;;78.03;9.47;;;13.10;99.90;;;;;;5042745;28;20604;-72
2022/04/04 00:55:24;;;;;;;88.30;10.13;;;13.10;99.90;;;;;;5037378;28;20191;-73
2022/04/04 00:57:54;;;;;;;64.27;8.70;;;13.10;99.90;;;;;;5039402;28;20543;-73
2022/04/04 01:00:20;;;;;;;91.33;10.10;;;13.10;99.90;;;;;;5042270;28;20192;-73
2022/04/04 01:02:47;;;;;;;72.37;9.43;;;13.10;99.90;;;;;;5039873;28;20279;-73
2022/04/04 01:05:13;;;;;;;68.37;9.77;;;13.00;99.90;;;;;;5045608;28;20855;-73
2022/04/04 01:07:40;;;;;;;66.37;9.07;;;13.00;99.90;;;;;;5038883;28;20694;-73
2022/04/04 01:10:11;;;;;;;75.97;10.20;;;13.10;99.90;;;;;;5057985;28;20230;-73
2022/04/04 01:12:48;;;;;;;69.43;9.97;;;13.10;99.90;;;;;;5046756;28;20550;-73
2022/04/04 01:15:14;;;;;;;63.47;9.27;;;13.10;99.90;;;;;;5034427;28;20199;-73
2022/04/04 01:17:40;;;;;;;68.03;10.27;;;13.10;99.90;;;;;;5036093;28;20206;-73
2022/04/04 01:20:08;;;;;;;77.10;9.67;;;13.00;99.90;;;;;;5046338;28;20191;-73
2022/04/04 01:22:34;;;;;;;83.37;9.07;;;13.00;99.90;;;;;;5040749;28;20215;-73
2022/04/04 01:25:04;;;;;;;79.40;9.77;;;12.90;99.90;;;;;;5044050;28;20405;-73
2022/04/04 01:27:30;;;;;;;70.83;9.27;;;12.90;99.90;;;;;;5038842;28;20654;-73
2022/04/04 01:29:57;;;;;;;76.67;11.27;;;12.90;99.90;;;;;;5036055;28;20180;-73
2022/04/04 01:32:23;;;;;;;72.40;10.87;;;12.90;99.90;;;;;;5047901;28;20577;-73
2022/04/04 01:34:49;;;;;;;70.40;10.73;;;12.90;99.90;;;;;;5042550;28;20192;-73
2022/04/04 01:37:16;;;;;;;74.83;9.87;;;12.80;99.90;;;;;;5033651;28;20692;-73
2022/04/04 01:39:42;;;;;;;83.33;9.97;;;12.80;99.90;;;;;;5054087;28;20195;-73
2022/04/04 01:42:08;;;;;;;57.27;9.30;;;12.80;99.90;;;;;;5030178;28;20215;-73
2022/04/04 01:44:35;;;;;;;76.13;9.90;;;12.80;99.90;;;;;;5039096;28;20187;-73
2022/04/04 01:47:01;;;;;;;71.33;10.17;;;12.80;99.90;;;;;;5048181;28;20187;-73
2022/04/04 01:49:27;;;;;;;69.73;9.80;;;12.70;99.90;;;;;;5043885;28;20199;-73
2022/04/04 01:51:53;;;;;;;58.37;9.13;;;12.70;99.90;;;;;;5043370;28;20214;-73
2022/04/04 01:54:20;;;;;;;69.40;9.27;;;12.70;99.90;;;;;;5047573;28;20283;-73
2022/04/04 01:56:46;;;;;;;93.87;11.80;;;12.70;99.90;;;;;;5032665;28;20203;-73
2022/04/04 01:59:12;;;;;;;79.73;9.80;;;12.70;99.90;;;;;;5048710;28;20191;-73
2022/04/04 02:01:39;;;;;;;80.10;9.67;;;12.60;99.90;;;;;;5038957;28;20302;-73
2022/04/04 02:04:11;;;;;;;81.47;10.67;;;12.60;99.90;;;;;;5061119;28;20203;-73
2022/04/04 02:06:37;;;;;;;73.87;10.03;;;12.50;99.90;;;;;;5048128;28;20214;-73
2022/04/04 02:09:04;;;;;;;83.27;9.93;;;12.50;99.90;;;;;;5050201;28;20271;-73
2022/04/04 02:11:30;;;;;;;75.23;10.10;;;12.50;99.90;;;;;;5049364;28;20191;-73
2022/04/04 02:13:58;;;;;;;66.53;9.00;;;12.50;99.90;;;;;;5042488;28;20284;-73
2022/04/04 02:16:26;;;;;;;64.87;9.03;;;12.40;99.90;;;;;;5048290;28;20766;-73
2022/04/04 02:18:52;;;;;;;65.90;9.13;;;12.40;99.90;;;;;;5047432;28;20179;-73
2022/04/04 02:21:19;;;;;;;82.00;9.07;;;12.40;99.90;;;;;;5038957;28;20318;-72
2022/04/04 02:23:45;;;;;;;78.07;9.63;;;12.40;99.90;;;;;;5048973;28;20195;-73
2022/04/04 02:26:11;;;;;;;73.90;9.60;;;12.30;99.90;;;;;;5050168;28;20961;-73
2022/04/04 02:28:38;;;;;;;61.83;9.77;;;12.30;99.90;;;;;;5056469;28;20645;-73
2022/04/04 02:31:05;;;;;;;70.50;8.53;;;12.30;99.90;;;;;;5040748;28;20621;-73
2022/04/04 02:33:31;;;;;;;77.20;10.23;;;12.40;99.90;;;;;;5032303;28;20537;-72
2022/04/04 02:35:57;;;;;;;75.23;9.20;;;12.40;99.90;;;;;;5035342;28;20243;-73
2022/04/04 02:38:27;;;;;;;76.27;10.93;;;12.30;99.90;;;;;;5049795;28;20592;-72
2022/04/04 02:40:56;;;;;;;72.23;9.47;;;12.20;99.90;;;;;;5029508;28;20208;-73
2022/04/04 02:43:23;;;;;;;58.03;9.07;;;12.30;99.90;;;;;;5037902;28;20183;-73
2022/04/04 02:45:50;;;;;;;58.60;8.70;;;12.20;99.90;;;;;;5040106;28;20215;-72
2022/04/04 02:48:20;;;;;;;69.63;8.67;;;12.20;99.90;;;;;;5036393;28;20778;-72
2022/04/04 02:50:47;;;;;;;74.90;9.37;;;12.20;99.90;;;;;;5040194;28;20195;-73
2022/04/04 02:53:14;;;;;;;65.10;10.17;;;12.10;99.90;;;;;;5041340;28;20353;-72
2022/04/04 02:58:25;;;;;;;84.83;9.60;;;12.10;99.90;;;;;;5045240;28;20278;-73
2022/04/04 03:00:52;;;;;;;67.93;9.30;;;12.10;99.90;;;;;;5037512;28;20831;-72
2022/04/04 03:03:19;;;;;;;60.93;8.70;;;12.10;99.90;;;;;;5040808;28;20274;-72
2022/04/04 03:05:46;;;;;;;72.03;9.27;;;12.10;99.90;;;;;;5044382;28;20974;-72
2022/04/04 03:08:13;;;;;;;70.30;8.70;;;12.10;99.90;;;;;;5049369;28;20185;-73
2022/04/04 03:10:39;;;;;;;63.33;8.13;;;12.10;99.90;;;;;;5045568;28;20187;-73
2022/04/04 03:13:05;;;;;;;72.80;10.17;;;12.00;99.90;;;;;;5041467;28;20245;-73
2022/04/04 03:15:34;;;;;;;77.87;9.90;;;11.90;99.90;;;;;;5043704;28;20199;-73
2022/04/04 03:18:05;;;;;;;61.47;8.73;;;12.00;99.90;;;;;;5033736;28;20238;-73
2022/04/04 03:20:33;;;;;;;66.10;9.03;;;12.00;99.90;;;;;;5044947;28;20639;-72
2022/04/04 03:23:01;;;;;;;69.53;9.60;;;12.00;99.90;;;;;;5030730;28;20191;-73
2022/04/04 03:25:27;;;;;;;60.67;8.80;;;12.10;99.90;;;;;;5047602;28;20848;-73
2022/04/04 03:27:54;;;;;;;53.67;9.13;;;12.10;99.90;;;;;;5048636;28;20571;-72
2022/04/04 03:30:28;;;;;;;59.93;8.50;;;12.10;99.90;;;;;;5045311;28;20551;-72
2022/04/04 03:32:57;;;;;;;54.57;8.07;;;12.20;99.90;;;;;;5041644;28;20274;-73
2022/04/04 03:35:26;;;;;;;66.33;9.60;;;12.20;99.90;;;;;;5041250;28;20282;-73
2022/04/04 03:37:55;;;;;;;79.83;10.23;;;12.20;99.90;;;;;;5047172;28;20191;-73
2022/04/04 03:40:23;;;;;;;62.23;8.40;;;12.10;99.90;;;;;;5042439;28;20192;-73
2022/04/04 03:42:53;;;;;;;60.13;9.13;;;12.10;99.90;;;;;;5040439;28;20971;-73
2022/04/04 03:45:21;;;;;;;59.07;8.43;;;12.10;99.90;;;;;;5041946;28;20241;-72
2022/04/04 03:47:48;;;;;;;63.33;8.60;;;12.10;99.90;;;;;;5035832;28;20266;-72
2022/04/04 03:50:17;;;;;;;83.03;10.10;;;12.20;99.90;;;;;;5039281;28;20187;-73
2022/04/04 03:52:53;;;;;;;67.67;10.00;;;12.20;99.90;;;;;;5046872;28;20226;-73
2022/04/04 03:55:23;;;;;;;70.93;8.87;;;12.20;99.90;;;;;;5040575;28;20183;-73
2022/04/04 03:57:51;;;;;;;62.30;8.33;;;12.20;99.90;;;;;;5043396;28;20201;-72
2022/04/04 04:00:19;;;;;;;68.23;9.13;;;12.20;99.90;;;;;;5037641;28;20221;-73
2022/04/04 04:02:45;;;;;;;61.50;9.27;;;12.30;99.90;;;;;;5047085;28;20243;-73
2022/04/04 04:05:12;;;;;;;73.03;10.17;;;12.30;99.90;;;;;;5039304;28;20183;-72
2022/04/04 04:07:39;;;;;;;83.23;9.10;;;12.30;99.90;;;;;;5044022;28;20244;-72
2022/04/04 04:10:06;;;;;;;61.10;9.20;;;12.30;99.90;;;;;;5047325;28;20206;-73
2022/04/04 04:12:33;;;;;;;67.43;9.40;;;12.40;99.90;;;;;;5036514;28;20195;-73
2022/04/04 04:15:00;;;;;;;68.90;8.33;;;12.40;99.90;;;;;;5040128;28;20290;-73
2022/04/04 04:17:26;;;;;;;62.73;8.77;;;12.50;99.90;;;;;;5028773;28;20188;-72
2022/04/04 04:22:38;;;;;;;61.40;8.70;;;12.50;99.90;;;;;;5038484;28;20628;-72
2022/04/04 04:25:06;;;;;;;71.50;10.03;;;12.60;99.90;;;;;;5047122;28;20219;-73
2022/04/04 04:27:33;;;;;;;76.83;9.67;;;12.60;99.90;;;;;;5044631;28;20202;-73
2022/04/04 04:29:59;;;;;;;57.23;8.17;;;12.70;99.90;;;;;;5042880;28;20269;-72
2022/04/04 04:32:26;;;;;;;52.80;8.07;;;12.70;99.90;;;;;;5043647;28;20575;-73
2022/04/04 04:34:52;;;;;;;48.57;8.57;;;12.80;99.90;;;;;;5046297;28;20648;-73
2022/04/04 04:37:23;;;;;;;67.03;9.37;;;12.80;99.90;;;;;;5044508;28;20235;-72
2022/04/04 04:39:51;;;;;;;51.63;7.77;;;12.90;99.90;;;;;;5045302;28;20199;-72
2022/04/04 04:42:17;;;;;;;72.30;9.70;;;12.90;99.90;;;;;;5023347;28;20207;-73
2022/04/04 04:44:45;;;;;;;68.73;8.27;;;13.00;99.90;;;;;;5041069;28;20179;-72
2022/04/04 04:47:11;;;;;;;50.60;8.93;;;13.00;99.90;;;;;;5039865;28;20187;-73
2022/04/04 04:49:39;;;;;;;72.00;9.07;;;13.10;99.90;;;;;;5046001;28;20233;-73
2022/04/04 04:52:06;;;;;;;71.50;10.03;;;13.10;99.90;;;;;;5038330;28;20273;-72
2022/04/04 04:54:32;;;;;;;69.77;10.37;;;13.10;99.90;;;;;;5033580;28;20839;-72
2022/04/04 04:56:58;;;;;;;57.53;8.17;;;13.20;99.90;;;;;;5047608;28;20205;-73
2022/04/04 04:59:25;;;;;;;64.57;8.30;;;13.20;99.90;;;;;;5047511;28;20669;-72
2022/04/04 05:01:52;;;;;;;52.37;7.80;;;13.30;99.90;;;;;;5042937;28;20207;-72
2022/04/04 05:04:18;;;;;;;45.07;7.57;;;13.40;99.90;;;;;;5043012;28;20195;-72
2022/04/04 05:06:49;;;;;;;55.07;8.87;;;13.40;99.90;;;;;;5046369;28;20180;-72
2022/04/04 05:09:18;;;;;;;61.83;8.70;;;13.50;99.90;;;;;;5046516;28;20191;-73
2022/04/04 05:11:45;;;;;;;57.73;10.07;;;13.50;99.90;;;;;;5046705;28;20191;-72
2022/04/04 05:14:18;;;;;;;54.33;9.17;;;13.60;99.90;;;;;;5041379;28;20202;-72
2022/04/04 05:16:46;;;;;;;54.33;9.17;;;13.70;99.90;;;;;;5046332;28;20183;-72
2022/04/04 05:19:17;;;;;;;43.83;8.27;;;13.80;99.90;;;;;;5044719;28;20252;-72
2022/04/04 05:21:46;;;;;;;66.47;8.77;;;13.80;99.90;;;;;;5031128;28;20216;-73
2022/04/04 05:24:13;;;;;;;54.83;8.67;;;13.90;99.90;;;;;;5039537;28;20263;-72
2022/04/04 05:26:39;;;;;;;58.07;8.57;;;14.00;99.90;;;;;;5048502;28;20206;-72
2022/04/04 05:29:07;;;;;;;50.30;8.70;;;14.10;99.90;;;;;;5048351;28;20195;-73
2022/04/04 05:31:34;;;;;;;64.10;9.23;;;14.10;99.90;;;;;;5039624;28;20196;-73
2022/04/04 05:34:04;;;;;;;56.20;8.63;;;14.10;99.90;;;;;;5046605;28;20196;-72
2022/04/04 05:36:34;;;;;;;68.93;9.20;;;14.20;99.90;;;;;;5046594;28;20302;-73
2022/04/04 05:39:02;;;;;;;62.13;8.87;;;14.30;99.90;;;;;;5032084;28;20235;-73
2022/04/04 05:41:28;;;;;;;53.40;8.37;;;14.30;99.90;;;;;;5047849;28;20309;-72
2022/04/04 05:43:55;;;;;;;63.80;8.83;;;14.40;99.90;;;;;;5030302;28;20203;-73
2022/04/04 05:46:22;;;;;;;65.13;9.50;;;14.50;99.90;;;;;;5045047;28;20767;-72
2022/04/04 05:48:48;;;;;;;62.97;8.93;;;14.50;99.90;;;;;;5035637;28;20194;-73
2022/04/04 05:51:17;;;;;;;64.33;9.03;;;14.60;99.90;;;;;;5045664;28;20626;-72
2022/04/04 05:53:45;;;;;;;66.57;9.43;;;14.60;99.90;;;;;;5040097;28;20195;-73
2022/04/04 05:56:12;;;;;;;54.37;9.23;;;14.70;99.90;;;;;;5029580;28;20274;-73
2022/04/04 05:58:38;;;;;;;57.67;9.03;;;14.80;99.90;;;;;;5041484;28;20200;-72
2022/04/04 06:01:05;;;;;;;68.17;8.63;;;14.80;99.90;;;;;;5047243;28;20306;-73
2022/04/04 06:03:31;;;;;;;58.57;8.90;;;14.90;99.90;;;;;;5042732;28;20677;-73
2022/04/04 06:06:34;;;;;;;64.07;9.17;;;15.00;99.90;;;;;;5028183;28;20211;-73
2022/04/04 06:09:01;;;;;;;56.10;8.47;;;15.10;99.90;;;;;;5046213;28;20525;-73
2022/04/04 06:11:27;;;;;;;43.87;7.77;;;15.10;99.90;;;;;;5030505;28;20275;-74
2022/04/04 06:13:54;;;;;;;54.20;8.33;;;15.20;99.90;;;;;;5036128;28;20196;-74
2022/04/04 06:16:21;;;;;;;50.20;7.77;;;15.30;99.90;;;;;;5033097;28;21506;-74
2022/04/04 06:18:50;;;;;;;50.23;8.67;;;15.30;99.90;;;;;;5038438;28;20282;-73
2022/04/04 06:21:20;;;;;;;51.83;7.33;;;15.40;99.90;;;;;;5048712;28;20212;-73
2022/04/04 06:23:46;;;;;;;56.80;7.00;;;15.50;99.90;;;;;;5037800;28;20235;-73
2022/04/04 06:26:13;;;;;;;43.47;7.03;;;15.60;99.90;;;;;;5048379;28;20273;-73
2022/04/04 06:28:43;;;;;;;56.20;8.33;;;15.60;99.90;;;;;;5040371;28;20230;-73
2022/04/04 06:31:10;;;;;;;37.77;6.67;;;15.70;99.90;;;;;;5047829;28;20191;-74
2022/04/04 06:33:37;;;;;;;52.67;7.57;;;15.80;99.90;;;;;;5047511;28;20187;-72
2022/04/04 06:36:04;;;;;;;54.67;8.53;;;15.90;99.90;;;;;;5024912;28;20696;-75
2022/04/04 06:38:30;;;;;;;60.27;8.57;;;15.90;99.90;;;;;;5042864;28;20274;-73
2022/04/04 06:40:57;;;;;;;45.83;7.73;;;16.10;99.90;;;;;;5050286;28;20207;-74
2022/04/04 06:43:23;;;;;;;53.20;7.97;;;16.10;99.90;;;;;;5054449;28;20188;-74
2022/04/04 06:45:49;;;;;;;45.10;7.93;;;16.20;99.90;;;;;;5040956;28;20200;-74
2022/04/04 06:48:16;;;;;;;71.27;9.87;;;16.30;99.90;;;;;;5060808;28;20188;-75
2022/04/04 06:50:42;;;;;;;55.87;8.30;;;16.40;99.90;;;;;;5047596;28;20203;-74
2022/04/04 06:53:10;;;;;;;43.83;7.30;;;16.50;99.90;;;;;;5043496;28;20246;-74
2022/04/04 06:55:38;;;;;;;69.37;9.33;;;16.50;99.90;;;;;;5035940;28;20231;-74
2022/04/04 06:58:04;;;;;;;59.83;8.67;;;16.60;99.90;;;;;;5042021;28;20183;-74
2022/04/04 07:00:35;;;;;;;55.90;9.13;;;16.70;99.90;;;;;;5045089;28;20199;-72
2022/04/04 07:03:02;;;;;;;61.67;9.80;;;16.80;99.90;;;;;;5029290;28;20183;-72
2022/04/04 07:05:28;;;;;;;72.23;9.73;;;16.90;99.90;;;;;;5042305;28;20593;-72
2022/04/04 07:07:55;;;;;;;74.13;10.93;;;17.00;99.90;;;;;;5039208;28;20190;-72
2022/04/04 07:10:22;;;;;;;68.23;10.57;;;17.10;99.90;;;;;;5033863;28;20237;-72
2022/04/04 07:12:48;;;;;;;77.57;10.90;;;17.20;99.90;;;;;;5042493;28;20548;-72
2022/04/04 07:15:15;;;;;;;78.83;10.67;;;17.30;99.90;;;;;;5034755;28;20913;-72
2022/04/04 07:17:43;;;;;;;103.60;11.43;;;17.50;99.90;;;;;;5041490;28;20192;-73
2022/04/04 07:20:11;;;;;;;84.43;12.10;;;17.60;97.90;;;;;;5046127;28;20204;-73
2022/04/04 07:22:42;;;;;;;60.50;10.43;;;17.70;98.50;;;;;;5024191;28;20206;-73
2022/04/04 07:25:11;;;;;;;100.27;12.20;;;17.80;99.50;;;;;;5033699;28;20273;-73
2022/04/04 07:27:40;;;;;;;110.27;13.00;;;18.00;97.90;;;;;;5029719;28;20192;-73
2022/04/04 07:30:11;;;;;;;98.97;12.43;;;18.20;96.20;;;;;;5036590;28;20556;-73
2022/04/04 07:32:38;;;;;;;67.03;10.43;;;18.20;96.50;;;;;;5015598;28;20188;-73
2022/04/04 07:35:11;;;;;;;77.33;11.67;;;18.40;95.90;;;;;;5037286;28;20183;-73
2022/04/04 07:37:38;;;;;;;102.80;13.33;;;18.40;96.30;;;;;;5019829;28;20191;-73
2022/04/04 07:40:06;;;;;;;81.20;12.27;;;18.50;95.50;;;;;;5042798;28;20896;-73
2022/04/04 07:42:34;;;;;;;74.50;10.67;;;18.60;95.20;;;;;;5044310;28;20242;-73
2022/04/04 07:45:00;;;;;;;67.80;11.43;;;18.70;96.10;;;;;;5039744;28;20183;-73
2022/04/04 07:47:27;;;;;;;78.97;11.10;;;18.90;96.70;;;;;;5039996;28;20177;-73
2022/04/04 07:49:53;;;;;;;77.07;11.90;;;18.90;95.50;;;;;;5044350;28;20192;-73
2022/04/04 07:52:20;;;;;;;78.27;11.00;;;18.90;95.20;;;;;;5048194;28;20676;-73
2022/04/04 07:54:46;;;;;;;78.90;11.50;;;19.00;95.00;;;;;;5028872;28;20207;-73
2022/04/04 07:57:12;;;;;;;102.27;12.00;;;19.10;95.60;;;;;;5041208;28;20230;-73
2022/04/04 07:59:39;;;;;;;90.87;11.27;;;19.20;96.00;;;;;;5031427;28;20216;-73
2022/04/04 08:02:05;;;;;;;61.93;10.17;;;19.30;95.80;;;;;;5054247;28;20661;-73
2022/04/04 08:04:32;;;;;;;68.57;10.33;;;19.40;95.80;;;;;;5037357;28;20787;-73
2022/04/04 08:06:58;;;;;;;64.23;8.90;;;19.40;95.60;;;;;;5038274;28;20186;-73
2022/04/04 08:09:26;;;;;;;70.20;10.53;;;19.50;95.30;;;;;;5047992;28;20206;-72
2022/04/04 08:11:54;;;;;;;64.00;10.27;;;19.50;95.40;;;;;;5035501;28;20656;-72
2022/04/04 08:14:21;;;;;;;66.87;10.83;;;19.70;96.00;;;;;;5054762;28;20201;-72
2022/04/04 08:16:49;;;;;;;64.07;10.00;;;19.70;94.90;;;;;;5041928;28;20265;-74
2022/04/04 08:19:15;;;;;;;64.97;10.10;;;19.80;95.90;;;;;;5035434;28;20250;-71
2022/04/04 08:21:42;;;;;;;62.10;10.07;;;19.90;95.30;;;;;;5039772;28;20302;-72
2022/04/04 08:24:08;;;;;;;92.63;12.87;;;20.00;95.90;;;;;;5040103;28;20674;-72
2022/04/04 08:26:35;;;;;;;70.77;10.60;;;20.10;94.80;;;;;;5023116;28;20211;-73
2022/04/04 08:29:02;;;;;;;74.73;11.27;;;20.20;95.80;;;;;;5042596;28;20572;-72
2022/04/04 08:31:28;;;;;;;70.33;10.30;;;20.30;95.30;;;;;;5035330;28;20184;-72
2022/04/04 08:33:55;;;;;;;72.30;11.27;;;20.40;95.80;;;;;;5035271;28;20187;-73
2022/04/04 08:36:21;;;;;;;82.83;11.03;;;20.50;95.20;;;;;;5040926;28;20219;-73
2022/04/04 08:38:47;;;;;;;63.87;10.40;;;20.60;96.30;;;;;;5041455;28;20205;-73
2022/04/04 08:41:14;;;;;;;81.50;10.50;;;20.70;95.50;;;;;;5041392;28;20563;-73
2022/04/04 08:43:49;;;;;;;67.67;9.83;;;20.70;96.30;;;;;;5022495;28;20293;-73
2022/04/04 08:46:16;;;;;;;71.77;9.80;;;20.80;96.60;;;;;;5041340;28;20186;-73
2022/04/04 08:48:44;;;;;;;91.07;12.30;;;20.90;96.70;;;;;;5043227;28;20194;-73
2022/04/04 08:51:10;;;;;;;86.90;11.23;;;21.10;95.90;;;;;;5049339;28;20195;-73
2022/04/04 08:53:39;;;;;;;94.00;11.27;;;21.10;96.60;;;;;;5035450;28;20196;-73
2022/04/04 08:56:09;;;;;;;78.40;10.67;;;21.20;95.90;;;;;;5028949;28;20211;-73
2022/04/04 08:58:36;;;;;;;66.53;11.27;;;21.30;94.80;;;;;;5042591;28;20191;-73
2022/04/04 09:01:03;;;;;;;77.77;10.80;;;21.30;95.00;;;;;;5036526;28;20219;-73
2022/04/04 09:03:31;;;;;;;72.77;9.90;;;21.40;94.10;;;;;;5038168;28;20183;-73
2022/04/04 09:06:03;;;;;;;92.37;11.80;;;21.50;94.80;;;;;;5040043;28;20191;-73
2022/04/04 09:08:42;;;;;;;79.33;10.33;;;21.60;94.50;;;;;;5038861;28;20246;-72
2022/04/04 09:11:09;;;;;;;82.77;9.83;;;21.70;93.70;;;;;;5043422;28;20249;-73
2022/04/04 09:13:35;;;;;;;92.57;12.23;;;21.80;94.30;;;;;;5028809;28;20192;-74
2022/04/04 09:16:04;;;;;;;68.00;11.03;;;21.90;93.80;;;;;;5041882;28;20196;-73
2022/04/04 09:18:36;;;;;;;83.03;12.30;;;22.00;94.30;;;;;;5044582;28;20192;-73
2022/04/04 09:21:05;;;;;;;91.37;12.27;;;22.10;94.20;;;;;;5044536;28;20654;-73
2022/04/04 09:23:50;;;;;;;79.77;10.23;;;22.10;94.30;;;;;;5025700;28;20669;-73
2022/04/04 09:26:31;;;;;;;83.90;12.13;;;22.20;91.90;;;;;;5035758;28;20183;-73
2022/04/04 09:29:22;;;;;;;79.53;11.27;;;22.40;93.10;;;;;;5036054;28;20222;-72
2022/04/04 09:32:09;;;;;;;64.80;11.47;;;22.50;92.50;;;;;;5035539;28;20245;-75
2022/04/04 09:35:10;;;;;;;100.70;10.90;;;22.60;92.40;;;;;;5045438;28;20214;-73
2022/04/04 09:37:39;;;;;;;95.23;11.93;;;22.70;93.00;;;;;;5044010;28;20508;-74
2022/04/04 09:40:13;;;;;;;67.47;10.17;;;22.90;93.00;;;;;;5037742;28;20553;-74
2022/04/04 09:42:41;;;;;;;93.55;12.55;;;23.10;93.70;;;;;;5041694;28;20632;-73
2022/04/04 09:45:13;;;;;;;95.50;11.18;;;23.20;92.30;;;;;;5042432;28;20286;-73
2022/04/04 09:47:57;;;;;;;96.88;12.32;;;23.30;92.10;;;;;;5025591;28;20195;-73
2022/04/04 09:50:48;;;;;;;90.60;12.48;;;23.50;91.50;;;;;;5028342;28;20957;-73
2022/04/04 09:53:21;;;;;;;90.68;12.27;;;23.50;91.20;;;;;;5060819;28;20191;-73
2022/04/04 09:55:57;;;;;;;99.88;12.20;;;23.60;90.80;;;;;;5039688;28;20591;-73
2022/04/04 09:58:29;;;;;;;92.88;11.77;;;23.80;92.30;;;;;;5038624;28;20206;-72
2022/04/04 10:01:01;;;;;;;87.25;12.52;;;23.90;91.20;;;;;;5031258;28;20672;-71
2022/04/04 10:03:31;;;;;;;82.97;12.80;;;24.00;92.20;;;;;;5038207;28;20641;-72
2022/04/04 10:06:10;;;;;;;92.80;11.95;;;24.10;90.50;;;;;;5024455;28;20677;-72
2022/04/04 10:08:39;;;;;;;83.97;11.75;;;24.20;91.30;;;;;;5042560;28;20203;-72
2022/04/04 10:11:10;;;;;;;88.50;11.57;;;24.20;91.20;;;;;;5051424;28;20518;-72
2022/04/04 10:13:37;;;;;;;88.57;10.80;;;24.30;90.50;;;;;;5039080;28;20184;-71
2022/04/04 10:16:05;;;;;;;83.32;11.27;;;24.40;92.30;;;;;;5018890;28;20191;-72
2022/04/04 10:18:34;;;;;;;97.20;12.57;;;24.50;91.30;;;;;;5033361;28;20199;-72
2022/04/04 10:21:01;;;;;;;93.13;11.27;;;24.50;91.10;;;;;;5047699;28;20207;-71
2022/04/04 10:23:30;;;;;;;104.93;13.25;;;24.60;91.40;;;;;;5025620;28;20184;-72
2022/04/04 10:25:58;;;;;;;87.63;12.65;;;24.90;90.60;;;;;;5025352;28;20525;-72
2022/04/04 10:28:31;;;;;;;118.28;14.02;;;25.20;90.50;;;;;;5039471;28;20191;-72
2022/04/04 10:31:12;;;;;;;100.53;12.35;;;25.20;90.10;;;;;;5037492;28;20840;-72
2022/04/04 10:33:39;;;;;;;88.10;11.13;;;24.90;90.00;;;;;;5043427;28;20654;-72
2022/04/04 10:36:10;;;;;;;82.40;12.43;;;24.60;90.00;;;;;;5033556;28;20218;-71
2022/04/04 10:38:45;;;;;;;86.20;11.55;;;24.60;90.40;;;;;;5040301;28;20249;-73
2022/04/04 10:41:23;;;;;;;87.95;12.52;;;24.50;90.80;;;;;;5034572;28;20203;-72
2022/04/04 10:43:55;;;;;;;91.32;11.35;;;24.60;89.70;;;;;;5042659;28;20884;-73
2022/04/04 10:46:27;;;;;;;85.50;11.80;;;24.50;90.30;;;;;;5040359;28;20326;-73
2022/04/04 10:49:06;;;;;;;101.00;12.60;;;24.50;90.60;;;;;;5033534;28;20195;-73
2022/04/04 10:51:38;;;;;;;86.05;12.48;;;;;;;;;;5037494;28;20191;-68
2022/04/04 10:54:09;;;;;;;78.50;10.85;;;24.70;90.30;;;;;;5036448;28;20656;-69
2022/04/04 10:56:42;;;;;;;73.75;10.50;;;24.70;90.00;;;;;;5032609;28;20224;-69
2022/04/04 10:59:23;;;;;;;87.13;11.48;;;24.60;88.10;;;;;;5034276;28;20219;-68
2022/04/04 11:01:56;;;;;;;85.18;12.75;;;24.70;86.20;;;;;;5033457;28;20677;-69
2022/04/04 11:07:37;;;;;;;87.82;12.30;;;24.60;87.10;;;;;;5033330;28;20286;-69
2022/04/04 11:07:38;;;;;;;92.25;12.00;;;24.60;87.20;;;;;;5030715;28;20194;-69
2022/04/04 11:10:10;;;;;;;103.20;13.52;;;24.50;86.50;;;;;;5035313;28;20184;-69
2022/04/04 11:13:15;;;;;;;65.15;10.32;;;24.40;88.30;;;;;;5041195;28;20229;-69
2022/04/04 11:15:48;;;;;;;115.05;12.77;;;24.30;85.50;;;;;;5031817;28;20321;-69
2022/04/04 11:18:15;;;;;;;80.43;11.93;;;24.30;84.50;;;;;;5028537;28;20191;-69
2022/04/04 11:20:53;;;;;;;80.60;11.20;;;24.20;87.70;;;;;;5040419;28;20926;-69
2022/04/04 11:23:22;;;;;;;97.75;10.57;;;24.20;86.90;;;;;;5044929;28;20556;-69
2022/04/04 11:25:54;;;;;;;126.78;12.98;;;24.20;84.90;;;;;;5029876;28;20192;-68
2022/04/04 11:28:31;;;;;;;85.80;11.32;;;24.30;85.10;;;;;;5033799;28;20203;-68
2022/04/04 11:31:12;;;;;;;81.53;11.20;;;24.20;85.40;;;;;;5038841;28;20196;-69
2022/04/04 11:34:13;;;;;;;79.55;10.55;;;24.20;86.60;;;;;;5036169;28;20192;-69
2022/04/04 11:36:42;;;;;;;84.43;11.50;;;24.10;85.10;;;;;;5035035;28;20643;-69
2022/04/04 11:39:10;;;;;;;96.97;13.02;;;24.10;86.20;;;;;;5039665;28;21207;-69
2022/04/04 11:41:46;;;;;;;106.30;12.20;;;24.10;84.50;;;;;;5039403;28;20560;-68
2022/04/04 11:44:26;;;;;;;73.65;9.88;;;24.10;84.00;;;;;;5037357;28;20560;-69
2022/04/04 11:47:05;;;;;;;72.25;12.45;;;24.00;87.20;;;;;;5043703;28;20266;-69
2022/04/04 11:49:37;;;;;;;80.82;10.93;;;24.00;86.80;;;;;;5035872;28;20241;-69
2022/04/04 11:52:07;;;;;;;190.27;18.17;;;24.00;88.80;;;;;;5039396;28;20202;-69
2022/04/04 11:54:50;;;;;;;166.82;18.75;;;24.10;89.00;;;;;;5039769;28;20291;-69
2022/04/04 11:57:21;;;;;;;100.72;13.38;;;24.10;90.40;;;;;;5037665;28;20209;-69
2022/04/04 11:59:50;;;;;;;110.63;12.52;;;24.10;89.80;;;;;;5043679;28;20196;-69
2022/04/04 12:02:23;;;;;;;66.45;11.93;;;24.00;89.10;;;;;;5033789;28;20227;-69
2022/04/04 12:04:50;;;;;;;88.07;11.93;;;24.00;87.50;;;;;;5034220;28;20188;-69
2022/04/04 12:07:17;;;;;;;94.15;12.40;;;24.00;88.70;;;;;;5032682;28;20187;-69
2022/04/04 12:09:46;;;;;;;98.95;12.50;;;24.00;90.00;;;;;;5035592;28;20188;-69
2022/04/04 12:12:13;;;;;;;89.43;11.90;;;24.00;90.60;;;;;;5037715;28;20225;-68
2022/04/04 12:14:47;;;;;;;68.28;10.80;;;23.90;90.20;;;;;;5026708;28;20659;-68
2022/04/04 12:17:14;;;;;;;71.53;10.70;;;;;;;;;;5040654;28;20187;-68
2022/04/04 12:19:46;;;;;;;87.82;11.30;;;24.00;90.80;;;;;;5040142;28;20203;-69
2022/04/04 12:25:04;;;;;;;88.65;11.07;;;24.00;91.20;;;;;;4989388;28;20241;-68
2022/04/04 12:27:31;;;;;;;84.97;11.65;;;24.00;91.30;;;;;;5052749;28;20941;-68
2022/04/04 12:30:05;;;;;;;91.90;12.32;;;23.90;90.00;;;;;;5056668;28;20237;-68
2022/04/04 12:32:41;;;;;;;83.18;11.48;;;23.90;90.80;;;;;;5051275;28;20268;-68
2022/04/04 12:35:08;;;;;;;82.82;12.52;;;23.80;90.20;;;;;;5061275;28;20187;-69
2022/04/04 12:37:41;;;;;;;99.07;12.40;;;23.80;90.50;;;;;;5057731;28;20631;-69
2022/04/04 12:40:18;;;;;;;107.15;12.45;;;23.80;87.90;;;;;;5060944;28;20187;-68
2022/04/04 12:42:47;;;;;;;90.25;12.18;;;23.80;85.50;;;;;;5054729;28;20218;-68
2022/04/04 12:45:16;;;;;;;76.50;11.10;;;23.80;89.10;;;;;;5052101;28;20184;-69
2022/04/04 12:48:10;;;;;;;78.57;12.70;;;23.70;90.20;;;;;;5046878;28;20188;-68
2022/04/04 12:50:48;;;;;;;93.05;12.18;;;23.70;89.00;;;;;;5048706;28;20237;-68